Time;durP1;ratioP1;P1;durP2;ratioP2;P2;SDS_P1;SDS_P2;PMS_P1;PMS_P2;Temp;Humidity;BMP_temperature;BMP_pressure;BME280_temperature;BME280_humidity;BME280_pressure;Samples;Min_cycle;Max_cycle;Signal;HPM_P1;HPM_P2
2023/01/21 00:00:43;;;;;;;23.63;8.13;;;22.90;42.00;;;;;;5063445;28;20206;-66
2023/01/21 00:03:11;;;;;;;12.20;5.67;;;22.90;42.00;;;;;;5057089;28;20199;-67
2023/01/21 00:05:39;;;;;;;11.23;5.17;;;22.90;42.00;;;;;;5059831;28;20231;-69
2023/01/21 00:08:06;;;;;;;19.53;7.63;;;22.90;41.90;;;;;;5051572;28;20204;-69
2023/01/21 00:10:33;;;;;;;18.63;7.47;;;22.90;42.00;;;;;;5060324;28;20209;-63
2023/01/21 00:13:00;;;;;;;12.03;5.90;;;22.80;41.90;;;;;;5066685;28;20278;-73
2023/01/21 00:15:27;;;;;;;11.07;5.53;;;22.80;41.90;;;;;;5066561;28;20226;-68
2023/01/21 00:17:54;;;;;;;16.93;7.17;;;22.80;41.90;;;;;;5060195;28;20195;-67
2023/01/21 00:20:21;;;;;;;11.47;5.27;;;22.80;42.00;;;;;;5062116;28;20295;-68
2023/01/21 00:22:52;;;;;;;10.47;5.50;;;22.80;42.00;;;;;;5065637;28;20206;-72
2023/01/21 00:25:19;;;;;;;18.53;7.07;;;22.80;42.00;;;;;;5060686;28;20224;-65
2023/01/21 00:27:46;;;;;;;20.93;8.07;;;22.80;42.00;;;;;;5062313;28;20381;-72
2023/01/21 00:30:14;;;;;;;9.57;5.07;;;22.80;42.00;;;;;;5063749;28;20196;-70
2023/01/21 00:32:40;;;;;;;20.43;7.80;;;22.80;42.00;;;;;;5060983;28;20230;-70
2023/01/21 00:35:08;;;;;;;13.57;6.20;;;22.80;42.00;;;;;;5065688;28;20206;-78
2023/01/21 00:37:35;;;;;;;19.23;7.43;;;22.70;41.90;;;;;;5062335;28;20712;-64
2023/01/21 00:40:04;;;;;;;11.30;5.30;;;22.80;42.00;;;;;;5066735;28;20199;-68
2023/01/21 00:42:32;;;;;;;12.93;5.80;;;22.80;42.00;;;;;;5062461;28;20211;-74
2023/01/21 00:44:58;;;;;;;20.87;8.40;;;22.70;41.90;;;;;;5066531;28;20239;-73
2023/01/21 00:47:25;;;;;;;10.27;5.07;;;22.70;41.90;;;;;;5061116;28;20200;-78
2023/01/21 00:49:52;;;;;;;15.60;6.57;;;22.70;41.90;;;;;;5059967;28;20227;-77
2023/01/21 00:52:19;;;;;;;13.67;6.60;;;22.70;41.90;;;;;;5065845;28;20771;-73
2023/01/21 00:54:46;;;;;;;17.30;6.77;;;22.70;41.90;;;;;;5061317;28;20921;-78
2023/01/21 00:57:15;;;;;;;12.20;6.17;;;22.70;41.90;;;;;;5053216;28;20203;-68
2023/01/21 00:59:42;;;;;;;23.77;8.67;;;22.70;42.00;;;;;;5066840;28;20234;-67
2023/01/21 01:02:09;;;;;;;16.77;6.77;;;22.70;41.90;;;;;;5062935;28;20210;-79
2023/01/21 01:04:36;;;;;;;11.03;5.47;;;22.70;41.90;;;;;;5065276;28;20204;-78
2023/01/21 01:07:04;;;;;;;13.47;6.57;;;22.70;41.90;;;;;;5066377;28;20208;-76
2023/01/21 01:09:31;;;;;;;18.10;7.33;;;22.70;41.90;;;;;;5059319;28;22061;-79
2023/01/21 01:11:58;;;;;;;20.17;7.90;;;22.70;41.90;;;;;;5061991;28;20246;-65
2023/01/21 01:14:26;;;;;;;14.37;7.03;;;22.70;42.40;;;;;;5068175;28;20212;-73
2023/01/21 01:16:53;;;;;;;15.50;6.80;;;22.70;43.40;;;;;;5064394;28;20199;-73
2023/01/21 01:19:20;;;;;;;14.60;6.83;;;22.70;44.00;;;;;;5070256;28;20199;-67
2023/01/21 01:21:47;;;;;;;12.40;6.33;;;22.70;44.60;;;;;;5065110;28;20960;-64
2023/01/21 01:24:14;;;;;;;13.03;6.53;;;22.70;45.10;;;;;;5069858;28;20669;-64
2023/01/21 01:26:41;;;;;;;14.17;6.10;;;22.70;45.40;;;;;;5069440;28;20209;-67
2023/01/21 01:29:10;;;;;;;15.60;7.00;;;22.70;45.50;;;;;;5064118;28;20565;-67
2023/01/21 01:31:39;;;;;;;14.00;6.40;;;22.70;45.60;;;;;;5064588;28;20225;-65
2023/01/21 01:34:06;;;;;;;13.73;6.27;;;22.70;45.70;;;;;;5061889;28;20204;-65
2023/01/21 01:36:35;;;;;;;14.77;6.93;;;22.70;46.20;;;;;;5065805;28;20207;-69
2023/01/21 01:39:02;;;;;;;13.37;6.23;;;22.70;45.40;;;;;;5069381;28;20246;-64
2023/01/21 01:41:33;;;;;;;13.20;5.90;;;22.80;45.00;;;;;;5071544;28;20208;-64
2023/01/21 01:44:03;;;;;;;13.27;6.00;;;22.80;44.60;;;;;;5070140;28;20543;-64
2023/01/21 01:46:32;;;;;;;12.53;5.93;;;22.70;44.30;;;;;;5070854;28;20306;-64
2023/01/21 01:49:06;;;;;;;16.90;7.37;;;22.80;44.20;;;;;;5070732;28;20210;-64
2023/01/21 01:51:41;;;;;;;10.60;5.27;;;22.70;43.80;;;;;;5070608;28;20913;-65
2023/01/21 01:54:11;;;;;;;12.27;5.97;;;22.80;43.70;;;;;;5069481;28;20659;-65
2023/01/21 01:56:43;;;;;;;10.93;5.43;;;22.80;43.50;;;;;;5069979;28;20200;-64
2023/01/21 01:59:11;;;;;;;9.73;5.20;;;22.70;43.30;;;;;;5070925;28;20206;-64
2023/01/21 02:01:38;;;;;;;13.67;5.90;;;22.80;43.40;;;;;;5068634;28;20211;-67
2023/01/21 02:04:10;;;;;;;10.27;5.80;;;22.80;43.30;;;;;;5064675;28;20205;-78
2023/01/21 02:06:38;;;;;;;9.60;5.33;;;22.70;43.10;;;;;;5066484;28;20634;-64
2023/01/21 02:09:05;;;;;;;10.77;5.60;;;22.70;42.90;;;;;;5069003;28;20983;-64
2023/01/21 02:11:33;;;;;;;11.53;5.63;;;22.80;43.00;;;;;;5069653;28;20306;-68
2023/01/21 02:14:00;;;;;;;16.70;6.70;;;22.70;42.90;;;;;;5069177;28;20225;-64
2023/01/21 02:17:06;;;;;;;11.07;5.73;;;22.70;42.70;;;;;;5070540;28;20559;-67
2023/01/21 02:20:07;;;;;;;12.33;5.63;;;22.70;42.70;;;;;;5070011;28;20203;-64
2023/01/21 02:22:41;;;;;;;9.80;4.63;;;22.70;42.70;;;;;;5069763;28;20548;-64
2023/01/21 02:25:44;;;;;;;9.63;5.37;;;22.70;42.70;;;;;;5064919;28;20310;-64
2023/01/21 02:28:48;;;;;;;11.00;5.53;;;22.80;42.60;;;;;;5069432;28;20744;-69
2023/01/21 02:31:44;;;;;;;11.13;5.37;;;22.80;42.60;;;;;;5066983;28;20626;-64
2023/01/21 02:34:22;;;;;;;10.23;5.30;;;22.70;42.40;;;;;;5070888;28;20368;-69
2023/01/21 02:37:03;;;;;;;9.30;5.00;;;22.80;42.50;;;;;;5069083;28;20195;-70
2023/01/21 02:39:41;;;;;;;18.93;7.47;;;22.70;42.40;;;;;;5062925;28;20212;-64
2023/01/21 02:42:16;;;;;;;9.97;5.23;;;22.70;42.40;;;;;;5064960;28;20206;-64
2023/01/21 02:44:48;;;;;;;11.10;5.67;;;22.70;42.40;;;;;;5070648;28;20217;-69
2023/01/21 02:47:22;;;;;;;11.17;5.30;;;22.70;42.40;;;;;;5068935;28;20206;-66
2023/01/21 02:49:53;;;;;;;15.37;7.07;;;22.70;42.30;;;;;;5069061;28;20203;-71
2023/01/21 02:52:22;;;;;;;17.20;7.37;;;22.70;42.20;;;;;;5067204;28;20227;-69
2023/01/21 02:54:57;;;;;;;8.97;4.77;;;22.70;42.20;;;;;;5067577;28;20222;-64
2023/01/21 02:57:36;;;;;;;20.63;8.20;;;22.70;42.10;;;;;;5066670;28;20632;-67
2023/01/21 03:00:06;;;;;;;10.70;5.63;;;22.70;42.10;;;;;;5063574;28;20195;-72
2023/01/21 03:03:09;;;;;;;8.47;4.93;;;22.70;42.20;;;;;;5069028;28;21064;-69
2023/01/21 03:05:52;;;;;;;8.73;4.80;;;22.70;42.00;;;;;;5055778;28;20199;-83
2023/01/21 03:08:21;;;;;;;12.03;5.70;;;22.70;41.90;;;;;;5065821;28;20545;-84
2023/01/21 03:10:54;;;;;;;10.20;5.03;;;22.70;42.00;;;;;;5070551;28;20199;-81
2023/01/21 03:18:59;;;;;;;10.90;5.50;;;22.70;41.90;;;;;;5067084;28;20630;-64
2023/01/21 03:21:30;;;;;;;9.73;5.00;;;22.70;41.90;;;;;;5063026;28;20228;-73
2023/01/21 03:23:59;;;;;;;11.97;5.67;;;22.70;41.90;;;;;;5067662;28;20235;-67
2023/01/21 03:26:32;;;;;;;10.83;5.43;;;22.70;41.90;;;;;;5066825;28;20209;-73
2023/01/21 03:29:05;;;;;;;9.30;5.27;;;22.70;41.90;;;;;;5070144;28;20672;-70
2023/01/21 03:31:36;;;;;;;11.37;5.53;;;22.70;41.90;;;;;;5068901;28;20199;-65
2023/01/21 03:34:06;;;;;;;8.33;4.57;;;22.70;41.90;;;;;;5052301;28;20644;-68
2023/01/21 03:36:39;;;;;;;11.10;5.20;;;22.70;41.90;;;;;;5067484;28;20200;-64
2023/01/21 03:39:15;;;;;;;10.50;5.17;;;22.70;41.80;;;;;;5052213;28;20652;-74
2023/01/21 03:41:42;;;;;;;10.77;5.27;;;22.70;41.70;;;;;;5068591;28;20205;-70
2023/01/21 03:44:09;;;;;;;12.00;5.80;;;22.70;41.80;;;;;;5067888;28;20204;-77
2023/01/21 03:46:41;;;;;;;9.60;4.93;;;22.70;41.80;;;;;;5065114;28;20204;-76
2023/01/21 03:49:15;;;;;;;9.70;5.37;;;22.70;41.70;;;;;;5065467;28;20665;-79
2023/01/21 03:51:49;;;;;;;10.17;5.23;;;22.70;41.60;;;;;;5065428;28;20650;-66
2023/01/21 03:54:16;;;;;;;8.80;4.93;;;22.70;41.60;;;;;;5069323;28;20205;-64
2023/01/21 03:56:42;;;;;;;9.17;4.73;;;22.70;41.70;;;;;;5055100;28;20208;-69
2023/01/21 03:59:09;;;;;;;14.37;6.30;;;22.70;42.30;;;;;;5055125;28;20980;-64
2023/01/21 04:01:38;;;;;;;9.57;5.20;;;22.70;41.60;;;;;;5068313;28;20231;-76
2023/01/21 04:04:05;;;;;;;9.73;5.20;;;22.70;41.60;;;;;;5068627;28;20267;-70
2023/01/21 04:06:32;;;;;;;15.00;6.60;;;22.70;41.50;;;;;;5067714;28;20199;-71
2023/01/21 04:09:01;;;;;;;10.47;5.33;;;22.70;41.50;;;;;;5062500;28;20225;-67
2023/01/21 04:11:28;;;;;;;17.37;7.10;;;22.70;41.50;;;;;;5064883;28;20286;-76
2023/01/21 04:13:54;;;;;;;9.60;4.83;;;22.70;41.50;;;;;;5065698;28;20245;-74
2023/01/21 04:16:21;;;;;;;13.97;6.27;;;22.70;41.50;;;;;;5069068;28;20232;-72
2023/01/21 04:18:48;;;;;;;15.73;7.00;;;22.70;41.40;;;;;;5067375;28;20222;-71
2023/01/21 04:21:15;;;;;;;10.67;5.30;;;22.70;41.50;;;;;;5067093;28;20211;-64
2023/01/21 04:23:42;;;;;;;11.57;5.40;;;22.70;41.50;;;;;;5067642;28;20234;-64
2023/01/21 04:26:11;;;;;;;33.90;11.33;;;22.70;41.40;;;;;;5053197;28;21184;-64
2023/01/21 04:28:38;;;;;;;12.63;6.13;;;22.70;41.30;;;;;;5063764;28;20209;-65
2023/01/21 04:31:04;;;;;;;19.83;7.53;;;22.70;41.40;;;;;;5063364;28;20196;-64
2023/01/21 04:33:31;;;;;;;12.07;6.47;;;22.70;41.40;;;;;;5060788;28;20215;-63
2023/01/21 04:35:59;;;;;;;10.77;5.47;;;22.70;41.40;;;;;;5063829;28;20524;-64
2023/01/21 04:38:27;;;;;;;8.07;4.80;;;22.70;41.40;;;;;;5068251;28;20199;-67
2023/01/21 04:40:54;;;;;;;19.47;7.87;;;22.70;41.30;;;;;;5064998;28;20188;-72
2023/01/21 04:43:22;;;;;;;8.97;4.87;;;22.70;41.30;;;;;;5061869;28;20266;-66
2023/01/21 04:45:49;;;;;;;13.83;6.17;;;22.70;41.30;;;;;;5063468;28;20200;-71
2023/01/21 04:48:17;;;;;;;18.97;7.47;;;22.70;41.40;;;;;;5066371;28;20206;-66
2023/01/21 04:50:43;;;;;;;14.77;6.50;;;22.70;41.30;;;;;;5066971;28;20206;-67
2023/01/21 04:53:10;;;;;;;18.80;7.80;;;22.70;41.30;;;;;;5058525;28;20827;-65
2023/01/21 04:55:37;;;;;;;14.90;6.77;;;22.70;41.20;;;;;;5063579;28;20203;-67
2023/01/21 04:58:04;;;;;;;15.17;7.30;;;22.70;41.30;;;;;;5059837;28;20306;-65
2023/01/21 05:00:32;;;;;;;8.83;5.20;;;22.70;41.20;;;;;;5064555;28;20613;-73
2023/01/21 05:02:59;;;;;;;17.30;7.13;;;22.70;41.10;;;;;;5059653;28;20195;-81
2023/01/21 05:05:26;;;;;;;13.57;6.70;;;22.70;41.70;;;;;;5059827;28;20732;-69
2023/01/21 05:07:53;;;;;;;11.00;5.40;;;22.70;41.10;;;;;;5065654;28;20210;-67
2023/01/21 05:10:21;;;;;;;9.87;5.67;;;22.70;41.10;;;;;;5063543;28;20199;-76
2023/01/21 05:12:48;;;;;;;19.40;7.90;;;22.70;41.10;;;;;;5064789;28;20223;-66
2023/01/21 05:15:15;;;;;;;14.17;6.73;;;22.70;41.00;;;;;;5059256;28;20529;-66
2023/01/21 05:17:43;;;;;;;11.60;5.70;;;22.70;41.00;;;;;;5060739;28;20197;-74
2023/01/21 05:20:11;;;;;;;16.43;7.13;;;22.70;41.00;;;;;;5064021;28;20203;-64
2023/01/21 05:22:38;;;;;;;11.43;5.90;;;22.70;41.00;;;;;;5060968;28;20215;-65
2023/01/21 05:25:06;;;;;;;9.87;5.37;;;22.70;41.00;;;;;;5062134;28;20234;-64
2023/01/21 05:27:33;;;;;;;9.50;5.30;;;22.70;41.00;;;;;;5055329;28;20231;-65
2023/01/21 05:30:00;;;;;;;13.27;6.73;;;22.70;40.90;;;;;;5056277;28;20291;-71
2023/01/21 05:32:27;;;;;;;14.33;6.43;;;22.70;41.00;;;;;;5058465;28;20314;-65
2023/01/21 05:34:55;;;;;;;18.40;7.73;;;22.70;40.90;;;;;;5059289;28;20191;-64
2023/01/21 05:37:22;;;;;;;11.53;6.00;;;22.70;40.80;;;;;;5062125;28;20195;-64
2023/01/21 05:39:49;;;;;;;11.17;6.17;;;22.70;40.90;;;;;;5067493;28;20210;-66
2023/01/21 05:42:16;;;;;;;12.63;5.73;;;22.70;40.80;;;;;;5065853;28;20206;-63
2023/01/21 05:44:43;;;;;;;8.50;5.13;;;22.70;40.90;;;;;;5065253;28;20660;-63
2023/01/21 05:47:10;;;;;;;21.37;8.77;;;22.70;40.80;;;;;;5065171;28;20689;-64
2023/01/21 05:49:36;;;;;;;10.30;5.23;;;22.70;40.90;;;;;;5056082;28;20262;-64
2023/01/21 05:52:05;;;;;;;13.33;6.23;;;22.70;40.80;;;;;;5057228;28;20302;-71
2023/01/21 05:54:32;;;;;;;11.43;5.80;;;22.70;40.80;;;;;;5067472;28;20215;-66
2023/01/21 05:56:59;;;;;;;15.57;6.80;;;22.70;40.80;;;;;;5064500;28;20346;-64
2023/01/21 05:59:26;;;;;;;9.80;5.43;;;22.70;40.80;;;;;;5055953;28;20578;-70
2023/01/21 06:01:53;;;;;;;11.57;6.17;;;22.70;40.80;;;;;;5069860;28;20821;-78
2023/01/21 06:04:20;;;;;;;9.80;5.50;;;22.70;40.80;;;;;;5068416;28;20318;-65
2023/01/21 06:06:48;;;;;;;8.20;5.07;;;22.70;40.80;;;;;;5071797;28;20532;-75
2023/01/21 06:09:16;;;;;;;11.43;5.63;;;22.70;40.70;;;;;;5070219;28;20630;-66
2023/01/21 06:11:43;;;;;;;11.53;6.07;;;22.70;40.70;;;;;;5070188;28;20265;-65
2023/01/21 06:14:11;;;;;;;13.60;6.23;;;22.80;40.80;;;;;;5069725;28;20744;-71
2023/01/21 06:16:38;;;;;;;13.43;6.47;;;22.80;40.80;;;;;;5067268;28;20298;-70
2023/01/21 06:19:05;;;;;;;18.03;7.40;;;22.80;40.70;;;;;;5068908;28;20676;-79
2023/01/21 06:21:32;;;;;;;9.93;5.33;;;22.90;40.80;;;;;;5070081;28;20218;-67
2023/01/21 06:23:59;;;;;;;11.00;5.40;;;22.90;40.80;;;;;;5070454;28;20258;-65
2023/01/21 06:26:27;;;;;;;15.90;6.93;;;22.90;40.70;;;;;;5068237;28;20655;-75
2023/01/21 06:28:55;;;;;;;13.43;6.20;;;22.90;40.60;;;;;;5056852;28;20287;-73
2023/01/21 06:31:22;;;;;;;8.27;5.10;;;23.00;40.70;;;;;;5067208;28;20727;-83
2023/01/21 06:33:49;;;;;;;8.67;5.03;;;23.00;40.60;;;;;;5068769;28;20577;-69
2023/01/21 06:36:16;;;;;;;12.93;6.73;;;23.00;40.60;;;;;;5058740;28;21558;-67
2023/01/21 06:38:43;;;;;;;8.13;5.23;;;23.00;40.60;;;;;;5068037;28;20191;-70
2023/01/21 06:41:10;;;;;;;17.10;7.63;;;23.10;40.70;;;;;;5067205;28;20214;-81
2023/01/21 06:43:38;;;;;;;11.93;6.17;;;23.10;40.60;;;;;;5065243;28;20611;-80
2023/01/21 06:46:05;;;;;;;10.87;5.53;;;23.10;40.50;;;;;;5059539;28;20199;-69
2023/01/21 06:48:32;;;;;;;10.00;5.67;;;23.10;41.10;;;;;;5070353;28;20667;-75
2023/01/21 06:51:00;;;;;;;20.40;8.13;;;23.20;40.60;;;;;;5067631;28;20304;-77
2023/01/21 06:53:27;;;;;;;8.40;4.97;;;23.20;40.50;;;;;;5065839;28;20880;-64
2023/01/21 06:55:54;;;;;;;9.77;5.63;;;23.20;40.50;;;;;;5062731;28;20306;-65
2023/01/21 06:58:21;;;;;;;7.80;4.93;;;23.30;40.50;;;;;;5065388;28;20198;-65
2023/01/21 07:00:49;;;;;;;14.60;6.63;;;23.30;40.50;;;;;;5064092;28;20204;-64
2023/01/21 07:03:16;;;;;;;16.67;6.70;;;23.30;40.40;;;;;;5068205;28;20290;-72
2023/01/21 07:05:43;;;;;;;9.13;5.77;;;23.30;40.40;;;;;;5065921;28;20200;-64
2023/01/21 07:08:10;;;;;;;18.97;8.27;;;23.30;40.40;;;;;;5062927;28;20210;-63
2023/01/21 07:10:36;;;;;;;12.03;6.10;;;23.40;40.20;;;;;;5062042;28;20261;-64
2023/01/21 07:13:03;;;;;;;23.33;9.20;;;23.40;40.20;;;;;;5060141;28;20219;-67
2023/01/21 07:15:30;;;;;;;12.10;6.40;;;23.40;40.20;;;;;;5062759;28;20199;-74
2023/01/21 07:17:59;;;;;;;8.83;5.53;;;23.40;40.20;;;;;;5067901;28;20732;-67
2023/01/21 07:20:26;;;;;;;21.33;8.37;;;23.40;40.10;;;;;;5066751;28;20208;-64
2023/01/21 07:22:53;;;;;;;9.80;5.50;;;23.50;40.20;;;;;;5066578;28;20227;-66
2023/01/21 07:25:20;;;;;;;15.40;7.43;;;23.50;40.20;;;;;;5068967;28;20664;-65
2023/01/21 07:27:47;;;;;;;9.83;6.07;;;23.50;40.20;;;;;;5069503;28;20290;-65
2023/01/21 07:30:17;;;;;;;10.47;6.20;;;23.50;40.40;;;;;;5069918;28;20556;-64
2023/01/21 07:32:44;;;;;;;14.50;7.10;;;23.50;40.40;;;;;;5063138;28;20593;-69
2023/01/21 07:35:13;;;;;;;9.93;5.97;;;23.60;40.50;;;;;;5068817;28;20261;-65
2023/01/21 07:37:41;;;;;;;11.10;5.87;;;23.60;40.30;;;;;;5065892;28;20246;-65
2023/01/21 07:40:09;;;;;;;13.33;6.77;;;23.60;40.30;;;;;;5069133;28;20282;-65
2023/01/21 07:42:36;;;;;;;9.30;5.97;;;23.70;40.40;;;;;;5069384;28;20576;-65
2023/01/21 07:45:03;;;;;;;9.40;5.63;;;23.70;40.40;;;;;;5069464;28;20681;-65
2023/01/21 07:47:30;;;;;;;9.20;5.60;;;23.70;40.40;;;;;;5069744;28;20202;-66
2023/01/21 07:49:57;;;;;;;9.50;5.70;;;23.70;40.30;;;;;;5065784;28;20218;-68
2023/01/21 07:52:25;;;;;;;14.67;7.20;;;23.70;40.10;;;;;;5067718;28;20227;-74
2023/01/21 07:54:52;;;;;;;9.93;5.30;;;23.80;40.20;;;;;;5068040;28;20314;-74
2023/01/21 07:57:19;;;;;;;11.97;6.37;;;23.80;40.30;;;;;;5068324;28;20939;-70
2023/01/21 07:59:45;;;;;;;7.50;4.73;;;23.80;40.10;;;;;;5067659;28;20575;-73
2023/01/21 08:02:13;;;;;;;17.37;7.43;;;23.80;40.10;;;;;;5065938;28;20738;-72
2023/01/21 08:04:39;;;;;;;12.33;6.20;;;23.80;40.10;;;;;;5067803;28;20591;-83
2023/01/21 08:07:08;;;;;;;10.53;6.03;;;23.80;40.00;;;;;;5068637;28;20664;-69
2023/01/21 08:09:36;;;;;;;10.13;5.83;;;23.80;39.90;;;;;;5065303;28;20218;-76
2023/01/21 08:12:04;;;;;;;7.97;5.47;;;23.80;39.80;;;;;;5056034;28;20195;-65
2023/01/21 08:14:31;;;;;;;13.07;6.77;;;23.80;39.80;;;;;;5068424;28;20237;-68
2023/01/21 08:16:58;;;;;;;10.13;5.40;;;23.80;39.80;;;;;;5058065;28;20290;-66
2023/01/21 08:19:25;;;;;;;10.63;5.77;;;23.80;39.80;;;;;;5063154;28;20207;-65
2023/01/21 08:21:52;;;;;;;10.33;5.57;;;23.80;39.70;;;;;;5068064;28;20374;-69
2023/01/21 08:24:19;;;;;;;14.77;7.23;;;23.80;39.70;;;;;;5068338;28;20286;-65
2023/01/21 08:26:47;;;;;;;9.17;5.47;;;23.80;39.60;;;;;;5069286;28;20208;-70
2023/01/21 08:29:14;;;;;;;12.60;6.67;;;23.80;39.60;;;;;;5068234;28;20266;-65
2023/01/21 08:31:41;;;;;;;6.50;4.87;;;23.80;40.20;;;;;;5052881;28;20456;-65
2023/01/21 08:34:08;;;;;;;9.70;5.57;;;23.80;39.50;;;;;;5068497;28;20318;-64
2023/01/21 08:36:37;;;;;;;8.50;4.93;;;23.80;39.60;;;;;;5067561;28;20204;-69
2023/01/21 08:39:04;;;;;;;12.63;6.60;;;23.80;39.60;;;;;;5068980;28;20296;-65
2023/01/21 08:41:31;;;;;;;15.27;6.90;;;23.80;39.50;;;;;;5067968;28;20283;-65
2023/01/21 08:43:59;;;;;;;14.47;6.73;;;23.80;39.50;;;;;;5062137;28;20203;-65
2023/01/21 08:46:27;;;;;;;9.93;5.73;;;23.80;39.40;;;;;;5068689;28;20210;-65
2023/01/21 08:48:54;;;;;;;9.33;5.30;;;23.80;39.50;;;;;;5069106;28;20200;-71
2023/01/21 08:51:21;;;;;;;10.40;5.43;;;23.70;39.30;;;;;;5067879;28;20294;-67
2023/01/21 08:53:49;;;;;;;10.03;6.07;;;23.70;39.30;;;;;;5068525;28;20217;-75
2023/01/21 08:56:16;;;;;;;9.17;5.17;;;23.70;39.30;;;;;;5067718;28;20200;-76
2023/01/21 08:58:43;;;;;;;10.43;5.83;;;23.70;39.30;;;;;;5068856;28;20270;-67
2023/01/21 09:01:14;;;;;;;15.27;7.10;;;23.80;39.40;;;;;;5065358;28;20561;-68
2023/01/21 09:03:41;;;;;;;12.30;5.93;;;23.80;39.40;;;;;;5063125;28;20252;-69
2023/01/21 09:06:08;;;;;;;14.03;6.43;;;23.80;39.40;;;;;;5066942;28;20199;-66
2023/01/21 09:08:36;;;;;;;9.00;5.43;;;23.80;39.30;;;;;;5069037;28;20566;-71
2023/01/21 09:11:04;;;;;;;8.87;5.47;;;23.70;39.30;;;;;;5068096;28;20210;-68
2023/01/21 09:13:33;;;;;;;7.50;5.10;;;23.70;39.20;;;;;;5068236;28;20217;-79
2023/01/21 09:16:00;;;;;;;11.00;5.77;;;23.70;39.80;;;;;;5067522;28;20212;-83
2023/01/21 09:18:29;;;;;;;10.17;5.17;;;23.70;39.20;;;;;;5067844;28;20292;-76
2023/01/21 09:21:01;;;;;;;9.10;5.53;;;23.80;39.30;;;;;;5067220;28;20208;-82
2023/01/21 09:23:31;;;;;;;7.80;4.93;;;23.80;39.20;;;;;;5067944;28;21069;-73
2023/01/21 09:26:02;;;;;;;9.80;5.30;;;23.80;39.90;;;;;;5068506;28;20223;-68
2023/01/21 09:28:29;;;;;;;8.90;5.17;;;23.70;39.10;;;;;;5068602;28;20214;-77
2023/01/21 09:30:57;;;;;;;9.00;5.33;;;23.80;39.20;;;;;;5066872;28;20202;-74
2023/01/21 09:33:24;;;;;;;8.53;4.97;;;23.80;39.20;;;;;;5072104;28;20579;-84
2023/01/21 09:35:57;;;;;;;11.70;6.20;;;23.80;39.30;;;;;;5066819;28;20219;-79
2023/01/21 09:38:25;;;;;;;9.87;5.20;;;23.80;39.10;;;;;;5070697;28;20200;-79
2023/01/21 09:40:52;;;;;;;10.60;5.83;;;23.80;39.20;;;;;;5068676;28;20884;-67
2023/01/21 09:43:23;;;;;;;8.83;5.07;;;23.80;39.30;;;;;;5072085;28;20782;-76
2023/01/21 09:45:53;;;;;;;7.63;4.70;;;23.80;39.20;;;;;;5071488;28;20664;-66
2023/01/21 09:48:27;;;;;;;11.80;5.90;;;23.80;39.30;;;;;;5070087;28;20682;-71
2023/01/21 09:50:58;;;;;;;7.37;4.43;;;23.80;39.10;;;;;;5069210;28;20654;-66
2023/01/21 09:53:31;;;;;;;11.10;5.70;;;23.80;39.30;;;;;;5070778;28;20203;-66
2023/01/21 09:56:02;;;;;;;9.83;5.50;;;23.80;39.20;;;;;;5071807;28;20321;-65
2023/01/21 09:58:35;;;;;;;8.00;4.90;;;23.80;39.20;;;;;;5071195;28;20202;-67
2023/01/21 10:01:09;;;;;;;14.93;7.03;;;23.90;39.20;;;;;;5067288;28;20323;-65
2023/01/21 10:03:44;;;;;;;8.30;4.87;;;23.90;39.20;;;;;;5069927;28;20207;-65
2023/01/21 10:06:27;;;;;;;9.30;5.10;;;23.90;39.20;;;;;;5071366;28;20203;-67
2023/01/21 10:09:15;;;;;;;8.63;5.27;;;23.90;39.10;;;;;;5071372;28;20558;-65
2023/01/21 10:11:53;;;;;;;9.77;5.30;;;24.00;39.20;;;;;;5070869;28;20283;-78
2023/01/21 10:14:35;;;;;;;9.53;5.60;;;24.00;39.30;;;;;;5071132;28;20233;-76
2023/01/21 10:17:06;;;;;;;8.20;4.70;;;24.10;39.50;;;;;;5070000;28;20198;-65
2023/01/21 10:19:39;;;;;;;8.93;5.53;;;24.10;39.60;;;;;;5069365;28;20204;-66
2023/01/21 10:22:26;;;;;;;8.67;4.93;;;24.30;39.80;;;;;;5070713;28;20237;-80
2023/01/21 10:25:00;;;;;;;10.77;5.40;;;24.40;39.80;;;;;;5070612;28;20214;-73
2023/01/21 10:27:33;;;;;;;9.20;5.10;;;24.50;39.90;;;;;;5054918;28;20200;-66
2023/01/21 10:30:09;;;;;;;13.90;6.50;;;24.70;39.90;;;;;;5070669;28;20199;-68
2023/01/21 10:32:39;;;;;;;8.77;5.17;;;24.90;39.90;;;;;;5069101;28;20238;-65
2023/01/21 10:35:16;;;;;;;12.37;6.20;;;25.10;39.80;;;;;;5062905;28;20231;-65
2023/01/21 10:37:48;;;;;;;8.40;4.77;;;25.30;39.60;;;;;;5057531;28;20206;-70
2023/01/21 10:40:41;;;;;;;8.73;4.83;;;25.40;39.40;;;;;;5054346;28;20187;-65
2023/01/21 10:43:12;;;;;;;7.70;4.73;;;25.60;39.40;;;;;;5070811;28;20671;-65
2023/01/21 10:45:45;;;;;;;8.40;5.10;;;25.80;39.10;;;;;;5070222;28;20296;-69
2023/01/21 10:48:19;;;;;;;10.53;5.73;;;25.90;38.80;;;;;;5069922;28;20208;-67
2023/01/21 10:50:53;;;;;;;9.83;5.13;;;26.00;38.80;;;;;;5070072;28;20203;-69
2023/01/21 10:53:27;;;;;;;10.60;5.83;;;26.10;38.60;;;;;;5070003;28;20227;-78
2023/01/21 10:56:13;;;;;;;7.90;4.70;;;26.20;38.30;;;;;;5070247;28;20236;-68
2023/01/21 10:58:45;;;;;;;9.63;5.23;;;26.30;38.20;;;;;;5069462;28;20203;-66
2023/01/21 11:01:19;;;;;;;13.83;5.50;;;26.40;38.40;;;;;;5066114;28;20210;-69
2023/01/21 11:03:49;;;;;;;13.10;6.23;;;26.40;38.20;;;;;;5069190;28;21042;-69
2023/01/21 11:06:19;;;;;;;9.03;5.27;;;26.50;38.30;;;;;;5068533;28;20575;-77
2023/01/21 11:08:51;;;;;;;10.33;5.13;;;26.50;38.70;;;;;;5069506;28;20214;-66
2023/01/21 11:11:26;;;;;;;16.77;7.33;;;26.60;38.00;;;;;;5067237;28;20204;-69
2023/01/21 11:13:53;;;;;;;12.20;5.73;;;26.60;37.90;;;;;;5069810;28;20285;-75
2023/01/21 11:16:43;;;;;;;8.00;4.67;;;26.70;38.00;;;;;;5069274;28;20237;-78
2023/01/21 11:19:13;;;;;;;7.43;4.50;;;26.70;37.70;;;;;;5070165;28;20682;-82
2023/01/21 11:21:40;;;;;;;8.47;5.03;;;26.70;37.70;;;;;;5067583;28;20227;-76
2023/01/21 11:24:22;;;;;;;9.17;5.40;;;26.80;37.80;;;;;;5070391;28;20200;-74
2023/01/21 11:26:51;;;;;;;8.03;4.77;;;26.70;37.60;;;;;;5069692;28;20230;-79
2023/01/21 11:29:20;;;;;;;9.57;5.33;;;26.80;37.80;;;;;;5064427;28;20362;-67
2023/01/21 11:31:49;;;;;;;12.13;6.20;;;26.70;37.70;;;;;;5069284;28;20192;-82
2023/01/21 11:34:18;;;;;;;11.13;5.13;;;26.80;37.80;;;;;;5067883;28;20196;-77
2023/01/21 11:37:00;;;;;;;8.93;4.63;;;26.70;37.70;;;;;;5068188;28;20199;-80
2023/01/21 11:39:30;;;;;;;13.60;6.20;;;26.70;37.40;;;;;;5069238;28;20283;-76
2023/01/21 11:42:03;;;;;;;8.43;4.87;;;26.70;37.70;;;;;;5061891;28;20203;-81
2023/01/21 11:44:30;;;;;;;8.27;4.67;;;26.70;37.70;;;;;;5069592;28;20206;-83
2023/01/21 11:46:56;;;;;;;9.73;5.80;;;26.70;37.70;;;;;;5067878;28;20242;-81
2023/01/21 11:49:29;;;;;;;8.47;5.20;;;26.60;37.60;;;;;;5069746;28;20286;-71
2023/01/21 11:52:20;;;;;;;12.13;6.37;;;26.60;37.70;;;;;;5067514;28;20214;-82
2023/01/21 11:54:48;;;;;;;8.67;4.87;;;26.60;37.60;;;;;;5066147;28;20702;-76
2023/01/21 11:57:28;;;;;;;10.23;6.13;;;26.50;37.60;;;;;;5067989;28;20202;-82
2023/01/21 12:00:06;;;;;;;10.27;6.00;;;26.50;37.60;;;;;;5067796;28;20647;-66
2023/01/21 12:02:39;;;;;;;9.03;5.43;;;26.50;37.70;;;;;;5069050;28;20602;-67
2023/01/21 12:05:13;;;;;;;10.10;5.77;;;26.50;38.40;;;;;;5067317;28;20204;-72
2023/01/21 12:07:41;;;;;;;9.80;5.67;;;26.40;37.70;;;;;;5069144;28;20195;-79
2023/01/21 12:10:24;;;;;;;11.67;6.53;;;26.40;37.80;;;;;;5068820;28;20187;-84
2023/01/21 12:13:04;;;;;;;8.30;5.30;;;26.40;37.70;;;;;;5068085;28;20199;-84
2023/01/21 12:15:48;;;;;;;8.67;5.43;;;26.40;37.80;;;;;;5068019;28;20327;-82
2023/01/21 12:18:24;;;;;;;8.90;5.53;;;26.40;37.80;;;;;;5068567;28;20286;-83
2023/01/21 12:20:57;;;;;;;8.73;5.43;;;26.40;37.90;;;;;;5065848;28;20203;-77
2023/01/21 12:23:38;;;;;;;9.60;5.53;;;26.40;37.80;;;;;;5064036;28;20223;-77
2023/01/21 12:26:28;;;;;;;8.73;5.40;;;26.40;37.80;;;;;;5067751;28;20199;-69
2023/01/21 12:29:10;;;;;;;8.97;4.93;;;26.40;37.80;;;;;;5068210;28;20848;-65
2023/01/21 12:31:42;;;;;;;9.67;5.23;;;26.40;37.80;;;;;;5067330;28;20199;-66
2023/01/21 12:34:18;;;;;;;7.67;4.63;;;26.40;37.80;;;;;;5068681;28;20209;-66
2023/01/21 12:36:49;;;;;;;7.20;4.53;;;26.40;37.80;;;;;;5052613;28;20233;-66
2023/01/21 12:39:20;;;;;;;15.60;7.53;;;26.40;37.80;;;;;;5067434;28;20734;-68
2023/01/21 12:41:55;;;;;;;8.27;5.00;;;26.40;37.80;;;;;;5068140;28;20200;-70
2023/01/21 12:44:32;;;;;;;12.93;6.43;;;26.40;37.80;;;;;;5066055;28;20197;-68
2023/01/21 12:47:03;;;;;;;9.10;5.27;;;26.40;37.80;;;;;;5068069;28;20682;-66
2023/01/21 12:49:47;;;;;;;8.13;4.93;;;26.40;37.80;;;;;;5068226;28;20321;-70
2023/01/21 12:52:19;;;;;;;8.67;5.07;;;26.40;37.80;;;;;;5067717;28;20893;-72
2023/01/21 12:54:53;;;;;;;15.07;7.20;;;26.40;37.80;;;;;;5063952;28;20213;-66
2023/01/21 12:57:28;;;;;;;8.53;4.90;;;26.40;37.80;;;;;;5068206;28;20679;-66
2023/01/21 13:00:02;;;;;;;8.17;4.90;;;26.40;37.70;;;;;;5068488;28;20225;-68
2023/01/21 13:02:34;;;;;;;11.20;5.47;;;26.40;37.80;;;;;;5066678;28;20204;-68